Felix Berger

Scout - Hamburger SV
3 Dec 2028
Sunday
Process

Personality

Adaptability (17) Ambition (15) Controversy (9) Loyalty (12) Pressure (11) Professionalism (16) Sportsmanship (19) Temperament (4)

Profile

Coaching Style Democratic
License National A
Determination 10
Man Management 14
Motivating 14
Discipline 11
Job Satisfaction
100%
Fatigue
0%
Role Scout
Wage 66.9K p/w
Contract 14.03.2029

Performance

Behaviour Good
Training Effectiveness
48%
Player Development
25%
Injury Prevention
50%
Tactical Implementation
30%

Recent Events

Attended a recruitment meeting now
Recommended a transfer target now
Observed a match now
Attended a recruitment meeting 7d ago
Recommended a transfer target 7d ago
Observed a match 7d ago
Observed a match 7d ago
Observed a match 7d ago

Currently Monitoring

83
Player Club Status Ability Confidence Watched Last Observed Latest Vote
Giannis Konstantelias Borussia Dortmund Report Ready 154 / 161 65% 1 14.08.2028 -
Kerim Alajbegović Modena Active 134 / 137 40% 1 14.08.2028 -
Luka Andrade Montevideo City Torque Active 106 / 110 40% 1 14.08.2028 -
Lisandro Piñero Banfield Active 121 / 128 40% 1 14.08.2028 -
Osku Maukonen Eintracht Frankfurt Active 123 / 116 40% 1 31.07.2028 -
Tyler Fletcher Rotherham United Active 115 / 117 40% 3 24.07.2028 -
Luke Brooke-Smith Chesterfield Active 99 / 105 40% 1 24.07.2028 -
Gabriel Mec Feirense Active 127 / 133 40% 1 24.07.2028 -
Nicholas Michalski Northampton Town Active 106 / 115 40% 1 19.07.2028 -
Tommaso Vannucchi Osasuna Active 109 / 122 40% 1 19.07.2028 -
Honest Ahanor Atalanta Active 138 / 148 40% 9 03.07.2028 -
Andrey Ivlev Nizhniy Novgorod Active 117 / 124 40% 3 03.07.2028 -
Miguel Figueiredo Benfica Active 126 / 129 40% 1 03.07.2028 -
Mexx Meerdink AZ Active 150 / 137 40% 1 26.06.2028 -
Keisuke Goto SC Freiburg Active 134 / 125 40% 1 26.06.2028 -
Eli Junior Kroupi Bournemouth Active 146 / 152 40% 1 26.06.2028 -
Fernando St. Pauli Lost 116 / 125 65% 1 19.06.2028 -
Maurits Kjærgaard Red Bull Salzburg Active 148 / 141 40% 2 12.06.2028 -
Sota Kitano Red Bull Salzburg Active 139 / 140 40% 1 12.06.2028 -
Yassir Zabiri Stade Rennais Active 145 / 142 40% 1 12.06.2028 -
Illaijh de Ruijter ADO Den Haag Active 114 / 127 40% 4 01.06.2028 -
Trey Nyoni Rotherham United Active 134 / 152 40% 3 01.06.2028 -
Jorthy Mokio ADO Den Haag Active 137 / 132 40% 4 29.05.2028 -
Riquelme Thompson-Jones Accrington Stanley Active 103 / 118 40% 4 25.05.2028 -
Olivier Mambwa Young Boys Active 104 / 127 40% 5 23.05.2028 -
Lamine Bèye Portimonense Active 117 / 116 40% 2 23.05.2028 -
Ayden Heaven Portsmouth Active 153 / 157 40% 2 23.05.2028 -
Marc Bernal Sevilla Active 146 / 152 40% 7 21.05.2028 -
Bernardo Lima Porto Active 106 / 122 40% 6 17.05.2028 -
Christos Mouzakitis Hull City Active 136 / 148 40% 2 14.05.2028 -
Daniel Banjaqui Benfica Active 124 / 128 40% 3 03.05.2028 -
Giovanni Leoni Lincoln City Active 134 / 147 40% 2 30.04.2028 -
Pau Cubarsí Real Sociedad Active 165 / 170 40% 4 27.04.2028 -
João Simões Sporting CP Active 135 / 145 40% 2 25.04.2028 -
Olivier Leroux Mouscron Active 101 / 116 40% 1 24.04.2028 -
Kiani Inge Groningen Active 115 / 126 40% 2 20.04.2028 -
Jorge Salinas Racing Santander Active 139 / 130 40% 3 16.04.2028 -
Kauã Moraes Flamengo Active 127 / 134 40% 3 14.04.2028 -
Martim Cunha Porto Active 110 / 113 40% 2 14.04.2028 -
Givairo Read Feyenoord Active 150 / 151 40% 2 13.04.2028 -
Andrija Bulatović Chamois Niortais Active 123 / 140 40% 4 10.04.2028 -
Josh Nichols Oldham Athletic Active 121 / 118 40% 5 08.04.2028 -
Matvey Bardachev Zenit Active 118 / 118 40% 2 06.04.2028 -
Thijs Kraaijeveld USM Alger Active 118 / 117 40% 1 06.04.2028 -
Josh Acheampong Everton Active 142 / 144 40% 1 05.04.2028 -
Izan Merino Málaga Active 124 / 127 40% 1 29.03.2028 -
Matias Siltanen Malmo FF Active 124 / 121 40% 1 28.03.2028 -
Jan Bürger Northampton Town Active 127 / 118 40% 1 25.03.2028 -
Héctor Fort Real Sociedad Active 132 / 145 40% 2 17.03.2028 -
Fodé Sylla Sion Active 120 / 121 40% 1 17.03.2028 -
George Brown Sheffield Wednesday Active 93 / 110 40% 4 26.05.2027 -
Prosper Peter Olympique Lyonnais Active 119 / 117 40% 2 26.05.2027 -
Mikel Gogorza Brondby Active 126 / 139 40% 2 25.05.2027 -
Ben Ahmed Kohili Paradou Active 106 / 92 40% 5 23.05.2027 -
Borna Knezović Casarano Active 102 / 108 40% 3 23.05.2027 -
Luke Baartman Ajax Cape Town Active 113 / 122 40% 3 11.05.2027 -
Ryan Oné Sheffield United Active 112 / 115 40% 2 11.05.2027 -
Gorka Carrera Real Sociedad Active 114 / 116 40% 4 06.05.2027 -
Adam Daghim RB Leipzig Active 139 / 139 40% 4 27.04.2027 -
Markus Jensen Nacional Active 112 / 105 40% 1 26.04.2027 -
Edmund Baidoo St. Gallen Active 122 / 133 40% 1 25.04.2027 -
Víctor Guzmán Sporting CP Active 87 / 110 40% 2 24.04.2027 -
Sindre Walle Egeli Udinese Active 132 / 126 40% 2 22.04.2027 -
Mathys Tel Tottenham Active 137 / 150 40% 1 21.04.2027 -
Senny Mayulu Paris Saint-Germain Active 148 / 154 40% 5 20.04.2027 -
Sam Amo-Ameyaw RC Strasbourg Active 125 / 123 40% 3 14.04.2027 -
Max Moerstedt TSG Hoffenheim Active 130 / 127 40% 1 12.04.2027 -
Lorenzo De Leo Renate Active 101 / 106 40% 1 22.03.2027 -
Mert Kömür FC Augsburg Active 123 / 122 40% 2 18.03.2027 -
Dinis Rodrigues Napoli Active 100 / 121 40% 2 18.03.2027 -
Rocco Vata Watford Active 119 / 128 40% 2 16.03.2027 -
Leo Castledine Middlesbrough Active 125 / 127 40% 1 11.03.2027 -
Will Lankshear Middlesbrough Active 128 / 117 40% 1 28.02.2027 -
Jeff Ekhator Juventus Active 130 / 141 40% 1 26.02.2027 -
Mateus Mané Burnley Active 140 / 146 40% 1 19.02.2027 -
Serge Daura PWD Bamenda Active 107 / 101 40% 1 14.02.2027 -
Thalys Almería Active 128 / 121 40% 1 13.02.2027 -
Roberto Iliev Slavia Sofia Active 88 / 100 40% 1 08.02.2027 -
Alexander Prass TSG Hoffenheim Active 141 / 137 62% 1 03.01.2027 Approve
Mads Hedenstad AGF Active 113 / 110 40% 1 02.01.2027 -
Kyriani Sabbe Club Brugge Active 126 / 129 40% 1 31.12.2026 -
Gino Santilli Kalmar FF Active 118 / 113 40% 1 17.08.2026 -
Jules Koundé Barcelona Active 165 / 170 40% 1 01.08.2026 -